createdAt,value
2022-08-23T00:00:14.795Z,23.45
2022-08-23T00:02:48.838Z,28.57
2022-08-23T00:05:21.582Z,29.07
2022-08-23T00:07:53.628Z,27.98
2022-08-23T00:10:25.771Z,28.27
2022-08-23T00:12:57.864Z,25.82
2022-08-23T00:15:29.920Z,31.40
2022-08-23T00:18:02.303Z,32.95
2022-08-23T00:20:34.407Z,26.02
2022-08-23T00:23:06.679Z,23.00
2022-08-23T00:25:38.671Z,26.75
2022-08-23T00:28:12.516Z,26.27
2022-08-23T00:30:44.507Z,27.55
2022-08-23T00:33:16.647Z,25.80
2022-08-23T00:35:48.679Z,25.88
2022-08-23T00:38:32.681Z,26.87
2022-08-23T00:40:56.254Z,31.27
2022-08-23T00:43:51.908Z,24.43
2022-08-23T00:49:34.459Z,28.07
2022-08-23T00:52:15.595Z,23.20
2022-08-23T00:54:49.002Z,28.60
2022-08-23T00:57:21.533Z,25.50
2022-08-23T00:59:53.755Z,24.05
2022-08-23T01:02:26.335Z,31.07
2022-08-23T01:05:00.160Z,33.80
2022-08-23T01:07:45.951Z,24.65
2022-08-23T01:10:29.835Z,28.55
2022-08-23T01:13:04.900Z,31.40
2022-08-23T01:15:42.950Z,25.92
2022-08-23T01:18:18.340Z,23.87
2022-08-23T01:21:05.741Z,29.27
2022-08-23T01:23:45.319Z,25.85
2022-08-23T01:26:22.102Z,26.37
2022-08-23T01:28:55.858Z,22.85
2022-08-23T01:31:28.953Z,23.18
2022-08-23T01:34:08.352Z,28.75
2022-08-23T01:36:41.075Z,28.02
2022-08-23T01:39:13.632Z,27.50
2022-08-23T01:41:46.153Z,22.77
2022-08-23T01:44:18.414Z,22.77
2022-08-23T01:46:50.617Z,24.98
2022-08-23T01:49:24.571Z,21.17
2022-08-23T01:51:56.670Z,20.48
2022-08-23T01:57:07.320Z,23.42
2022-08-23T02:02:11.499Z,25.35
2022-08-23T02:04:43.710Z,23.85
2022-08-23T02:07:15.739Z,22.27
2022-08-23T02:09:49.489Z,20.95
2022-08-23T02:12:21.860Z,21.43
2022-08-23T02:14:55.639Z,27.40
2022-08-23T02:17:29.495Z,25.12
2022-08-23T02:20:03.308Z,20.15
2022-08-23T02:22:35.548Z,25.83
2022-08-23T02:25:08.355Z,20.50
2022-08-23T02:27:43.022Z,33.10
2022-08-23T02:30:16.302Z,25.05
2022-08-23T02:32:48.709Z,21.75
2022-08-23T02:35:21.326Z,24.27
2022-08-23T02:37:55.212Z,25.95
2022-08-23T02:40:27.286Z,19.47
2022-08-23T02:43:00.153Z,20.85
2022-08-23T02:45:32.663Z,22.40
2022-08-23T02:48:05.264Z,24.67
2022-08-23T02:50:39.659Z,28.83
2022-08-23T02:53:12.122Z,24.15
2022-08-23T02:55:46.577Z,23.00
2022-08-23T02:58:18.634Z,24.32
2022-08-23T03:00:51.900Z,21.17
2022-08-23T03:03:26.183Z,18.45
2022-08-23T03:05:58.546Z,23.80
2022-08-23T03:08:32.603Z,19.98
2022-08-23T03:11:09.726Z,21.70
2022-08-23T03:13:40.187Z,24.47
2022-08-23T03:16:12.808Z,22.65
2022-08-23T03:18:47.935Z,21.70
2022-08-23T03:23:53.321Z,22.73
2022-08-23T03:26:25.932Z,21.77
2022-08-23T03:28:59.040Z,22.50
2022-08-23T03:31:33.437Z,27.40
2022-08-23T03:34:07.995Z,21.60
2022-08-23T03:36:41.024Z,18.62
2022-08-23T03:39:14.011Z,20.08
2022-08-23T03:41:46.509Z,20.50
2022-08-23T03:44:18.933Z,19.85
2022-08-23T03:46:52.221Z,18.20
2022-08-23T03:49:24.471Z,18.57
2022-08-23T03:51:57.624Z,22.13
2022-08-23T03:54:30.224Z,24.20
2022-08-23T03:57:05.401Z,18.57
2022-08-23T03:59:41.156Z,17.70
2022-08-23T04:02:14.953Z,20.95
2022-08-23T04:04:47.018Z,18.70
2022-08-23T04:07:37.394Z,16.95
2022-08-23T04:10:13.103Z,19.92
2022-08-23T04:12:46.497Z,18.10
2022-08-23T04:15:20.511Z,14.13
2022-08-23T04:17:53.027Z,23.55
2022-08-23T04:20:26.110Z,16.60
2022-08-23T04:23:03.993Z,16.85
2022-08-23T04:25:38.131Z,19.50
2022-08-23T04:28:10.472Z,17.15
2022-08-23T04:30:43.548Z,16.32
2022-08-23T04:33:19.141Z,21.82
2022-08-23T04:35:52.982Z,19.73
2022-08-23T04:38:25.765Z,27.00
2022-08-23T04:41:18.108Z,16.05
2022-08-23T04:43:51.729Z,20.62
2022-08-23T04:46:24.063Z,17.12
2022-08-23T04:48:57.348Z,18.48
2022-08-23T04:51:29.499Z,19.73
2022-08-23T04:54:03.472Z,22.10
2022-08-23T04:56:43.597Z,22.45
2022-08-23T04:59:16.360Z,17.75
2022-08-23T05:01:49.982Z,17.77
2022-08-23T05:04:22.689Z,18.73
2022-08-23T05:06:55.261Z,20.97
2022-08-23T05:09:27.821Z,18.42
2022-08-23T05:12:00.621Z,21.42
2022-08-23T05:14:35.139Z,19.02
2022-08-23T05:17:08.455Z,18.75
2022-08-23T05:19:47.004Z,21.65
2022-08-23T05:22:17.850Z,17.02
2022-08-23T05:24:51.824Z,19.85
2022-08-23T05:27:24.232Z,19.73
2022-08-23T05:29:57.451Z,29.42
2022-08-23T05:32:33.295Z,19.05
2022-08-23T05:35:04.606Z,19.42
2022-08-23T05:37:38.626Z,20.32
2022-08-23T05:40:12.158Z,24.47
2022-08-23T05:42:46.579Z,17.70
2022-08-23T05:45:21.964Z,21.68
2022-08-23T05:47:53.640Z,16.20
2022-08-23T05:50:29.866Z,20.32
2022-08-23T05:53:04.364Z,19.92
2022-08-23T05:55:38.399Z,17.95
2022-08-23T05:58:21.551Z,21.63
2022-08-23T06:00:55.569Z,17.67
2022-08-23T06:03:28.293Z,14.87
2022-08-23T06:06:02.169Z,17.65
2022-08-23T06:08:35.927Z,18.62
2022-08-23T06:11:11.721Z,15.20
2022-08-23T06:13:49.539Z,19.55
2022-08-23T06:16:24.717Z,21.55
2022-08-23T06:18:58.332Z,29.50
2022-08-23T06:21:45.171Z,21.65
2022-08-23T06:24:17.782Z,11.78
2022-08-23T06:26:58.011Z,16.30
2022-08-23T06:29:30.379Z,25.77
2022-08-23T06:32:08.393Z,19.10
2022-08-23T06:34:42.498Z,18.52
2022-08-23T06:37:28.034Z,20.77
2022-08-23T06:40:05.753Z,16.32
2022-08-23T06:42:42.199Z,20.85
2022-08-23T06:45:14.536Z,19.60
2022-08-23T06:47:48.191Z,17.37
2022-08-23T06:50:20.999Z,13.90
2022-08-23T06:53:12.542Z,13.68
2022-08-23T06:55:52.231Z,13.00
2022-08-23T06:58:41.501Z,17.67
2022-08-23T07:01:45.345Z,21.77
2022-08-23T07:04:15.831Z,17.35
2022-08-23T07:07:11.144Z,17.73
2022-08-23T07:09:41.526Z,15.55
2022-08-23T07:12:13.735Z,18.02
2022-08-23T07:14:47.339Z,17.20
2022-08-23T07:17:19.920Z,15.65
2022-08-23T07:19:53.633Z,13.53
2022-08-23T07:22:26.463Z,14.65
2022-08-23T07:24:58.980Z,19.60
2022-08-23T07:27:33.501Z,13.78
2022-08-23T07:30:07.958Z,15.95
2022-08-23T07:35:26.581Z,17.50
2022-08-23T07:38:01.158Z,18.42
2022-08-23T07:40:38.910Z,12.37
2022-08-23T07:45:48.137Z,16.35
2022-08-23T07:48:37.328Z,13.25
2022-08-23T07:51:05.377Z,22.07
2022-08-23T07:53:43.013Z,32.20
2022-08-23T07:56:17.287Z,14.98
2022-08-23T07:59:11.367Z,15.58
2022-08-23T08:01:48.257Z,12.90
2022-08-23T08:04:20.359Z,18.23
2022-08-23T08:07:16.901Z,16.10
2022-08-23T08:12:00.769Z,22.98
2022-08-23T08:14:36.300Z,26.00
2022-08-23T08:17:09.149Z,17.60
2022-08-23T08:19:59.586Z,11.50
2022-08-23T08:22:48.529Z,13.48
2022-08-23T08:25:34.559Z,12.47
2022-08-23T08:28:11.581Z,15.05
2022-08-23T08:30:42.464Z,13.40
2022-08-23T08:33:15.091Z,12.98
2022-08-23T08:35:57.757Z,40.50
2022-08-23T08:38:24.050Z,12.75
2022-08-23T08:41:03.810Z,13.78
2022-08-23T08:44:15.815Z,15.13
2022-08-23T08:46:48.942Z,13.08
2022-08-23T08:49:31.961Z,10.43
2022-08-23T08:52:16.517Z,14.68
2022-08-23T08:54:53.182Z,12.93
2022-08-23T08:57:27.659Z,17.10
2022-08-23T09:00:04.190Z,13.18
2022-08-23T09:02:39.501Z,10.90
2022-08-23T09:05:16.010Z,13.43
2022-08-23T09:08:09.237Z,13.93
2022-08-23T09:10:44.637Z,11.57
2022-08-23T09:13:25.823Z,11.30
2022-08-23T09:16:16.930Z,14.65
2022-08-23T09:18:49.622Z,15.75
2022-08-23T09:21:23.155Z,22.25
2022-08-23T09:24:00.458Z,11.43
2022-08-23T09:26:32.802Z,21.17
2022-08-23T09:29:17.426Z,15.98
2022-08-23T09:37:19.574Z,9.93
2022-08-23T09:39:55.623Z,9.50
2022-08-23T09:42:31.059Z,13.80
2022-08-23T09:45:05.385Z,10.88
2022-08-23T09:47:44.553Z,10.80
2022-08-23T09:50:27.638Z,14.00
2022-08-23T09:53:14.726Z,12.60
2022-08-23T09:55:57.372Z,10.75
2022-08-23T09:58:38.943Z,12.65
2022-08-23T10:01:17.462Z,8.83
2022-08-23T10:04:10.419Z,11.38
2022-08-23T10:06:46.488Z,9.85
2022-08-23T10:09:35.605Z,11.53
2022-08-23T10:12:09.162Z,12.90
2022-08-23T10:14:44.038Z,8.63
2022-08-23T10:17:23.771Z,9.63
2022-08-23T10:20:06.731Z,8.13
2022-08-23T10:22:47.803Z,18.98
2022-08-23T10:25:30.446Z,18.15
2022-08-23T10:28:26.216Z,12.73
2022-08-23T10:31:14.305Z,13.45
2022-08-23T10:34:13.326Z,13.00
2022-08-23T10:37:03.873Z,11.05
2022-08-23T10:39:39.899Z,8.60
2022-08-23T10:42:18.194Z,11.78
2022-08-23T10:44:54.053Z,15.75
2022-08-23T10:47:43.147Z,8.83
2022-08-23T10:50:20.340Z,9.50
2022-08-23T10:52:58.614Z,8.43
2022-08-23T10:55:38.701Z,9.65
2022-08-23T10:58:15.006Z,9.88
2022-08-23T11:00:47.743Z,12.93
2022-08-23T11:03:28.221Z,11.30
2022-08-23T11:06:34.912Z,9.68
2022-08-23T11:09:22.592Z,13.28
2022-08-23T11:12:17.763Z,11.90
2022-08-23T11:15:02.136Z,11.00
2022-08-23T11:17:44.044Z,10.08
2022-08-23T11:20:36.466Z,5.78
2022-08-23T11:23:12.075Z,13.95
2022-08-23T11:25:46.801Z,7.90
2022-08-23T11:31:14.356Z,7.72
2022-08-23T11:33:56.490Z,7.70
2022-08-23T11:36:31.417Z,10.38
2022-08-23T11:39:12.521Z,8.75
2022-08-23T11:42:01.488Z,11.53
2022-08-23T11:44:38.397Z,14.60
2022-08-23T11:47:13.109Z,9.80
2022-08-23T11:50:00.542Z,8.45
2022-08-23T11:52:48.703Z,8.70
2022-08-23T11:55:43.295Z,8.33
2022-08-23T11:58:33.500Z,11.53
2022-08-23T12:01:14.569Z,12.03
2022-08-23T12:04:02.447Z,6.65
2022-08-23T12:06:54.135Z,9.65
2022-08-23T12:09:30.729Z,10.53
2022-08-23T12:12:09.118Z,10.70
2022-08-23T12:14:47.498Z,6.97
2022-08-23T12:17:24.939Z,13.43
2022-08-23T12:20:16.343Z,9.05
2022-08-23T12:23:06.810Z,7.08
2022-08-23T12:25:39.885Z,8.90
2022-08-23T12:28:26.521Z,10.93
2022-08-23T12:31:07.825Z,14.65
2022-08-23T12:33:53.366Z,25.30
2022-08-23T12:36:54.363Z,12.37
2022-08-23T12:39:36.358Z,5.05
2022-08-23T12:42:20.222Z,8.98
2022-08-23T12:45:07.320Z,8.23
2022-08-23T12:47:43.178Z,4.92
2022-08-23T12:50:18.334Z,6.28
2022-08-23T12:53:04.709Z,7.30
2022-08-23T12:55:39.695Z,6.70
2022-08-23T12:58:13.243Z,4.70
2022-08-23T13:00:57.835Z,8.30
2022-08-23T13:03:42.393Z,6.08
2022-08-23T13:06:23.540Z,6.47
2022-08-23T13:09:01.879Z,5.45
2022-08-23T13:11:37.470Z,7.10
2022-08-23T13:14:31.300Z,7.62
2022-08-23T13:17:29.213Z,4.35
2022-08-23T13:20:10.574Z,7.10
2022-08-23T13:23:04.379Z,9.28
2022-08-23T13:25:42.902Z,5.70
2022-08-23T13:28:31.193Z,5.42
2022-08-23T13:31:06.268Z,7.15
2022-08-23T13:33:41.077Z,5.50
2022-08-23T13:36:18.638Z,8.95
2022-08-23T13:38:52.427Z,9.08
2022-08-23T13:41:30.432Z,5.08
2022-08-23T13:44:05.525Z,6.45
2022-08-23T13:46:40.731Z,3.92
2022-08-23T13:49:18.963Z,8.33
2022-08-23T13:52:41.314Z,6.78
2022-08-23T13:54:41.842Z,5.00
2022-08-23T13:57:17.133Z,89.65
2022-08-23T13:59:52.105Z,7.53
2022-08-23T14:02:25.588Z,6.37
2022-08-23T14:04:57.815Z,8.65
2022-08-23T14:07:30.314Z,9.45
2022-08-23T14:10:03.320Z,7.13
2022-08-23T14:12:36.658Z,9.25
2022-08-23T14:15:09.950Z,8.40
2022-08-23T14:17:50.875Z,6.42
2022-08-23T14:20:43.276Z,4.42
2022-08-23T14:23:05.642Z,7.53
2022-08-23T14:25:34.833Z,7.50
2022-08-23T14:28:07.079Z,6.70
2022-08-23T14:30:39.596Z,10.18
2022-08-23T14:33:11.919Z,6.95
2022-08-23T14:35:44.942Z,10.13
2022-08-23T14:38:19.114Z,29.15
2022-08-23T14:41:01.247Z,22.62
2022-08-23T14:43:34.799Z,77.82
2022-08-23T14:48:38.270Z,80.30
2022-08-23T14:51:25.562Z,164.67
2022-08-23T14:53:58.217Z,83.50
2022-08-23T14:56:32.616Z,49.98
2022-08-23T14:59:04.898Z,14.75
2022-08-23T15:01:38.002Z,9.78
2022-08-23T15:04:10.946Z,13.55
2022-08-23T15:07:00.421Z,9.98
2022-08-23T15:09:17.058Z,10.28
2022-08-23T15:14:24.674Z,10.82
2022-08-23T15:16:57.550Z,13.93
2022-08-23T15:19:30.546Z,10.75
2022-08-23T15:22:15.853Z,9.45
2022-08-23T15:24:39.300Z,12.20
2022-08-23T15:27:12.680Z,7.37
2022-08-23T15:29:45.023Z,7.58
2022-08-23T15:32:22.655Z,23.73
2022-08-23T15:34:51.807Z,11.88
2022-08-23T15:37:24.467Z,11.45
2022-08-23T15:39:57.170Z,13.48
2022-08-23T15:42:29.514Z,11.00
2022-08-23T15:45:01.824Z,7.47
2022-08-23T15:47:36.964Z,10.58
2022-08-23T15:50:10.801Z,6.45
2022-08-23T15:52:43.598Z,7.78
2022-08-23T15:55:16.143Z,6.92
2022-08-23T15:57:51.392Z,8.93
2022-08-23T16:00:25.137Z,10.58
2022-08-23T16:03:19.252Z,8.73
2022-08-23T16:05:32.119Z,6.62
2022-08-23T16:08:05.097Z,6.55
2022-08-23T16:10:39.119Z,12.05
2022-08-23T16:13:11.718Z,10.18
2022-08-23T16:15:44.296Z,7.67
2022-08-23T16:18:16.657Z,6.97
2022-08-23T16:20:48.819Z,5.65
2022-08-23T16:23:23.822Z,6.05
2022-08-23T16:26:00.856Z,8.13
2022-08-23T16:28:30.195Z,12.30
2022-08-23T16:31:02.550Z,6.80
2022-08-23T16:33:35.467Z,7.00
2022-08-23T16:36:08.979Z,8.00
2022-08-23T16:38:41.264Z,13.40
2022-08-23T16:41:14.265Z,16.95
2022-08-23T16:43:47.772Z,13.65
2022-08-23T16:46:22.016Z,14.70
2022-08-23T16:48:54.481Z,15.55
2022-08-23T16:51:27.655Z,17.90
2022-08-23T16:54:02.720Z,19.37
2022-08-23T16:56:35.260Z,25.62
2022-08-23T16:59:09.980Z,23.30
2022-08-23T17:01:48.813Z,22.37
2022-08-23T17:04:24.968Z,25.35
2022-08-23T17:06:59.656Z,30.50
2022-08-23T17:09:31.810Z,30.17
2022-08-23T17:12:04.451Z,31.77
2022-08-23T17:14:36.773Z,32.78
2022-08-23T17:17:09.104Z,38.65
2022-08-23T17:19:42.017Z,38.02
2022-08-23T17:22:14.353Z,49.55
2022-08-23T17:24:47.757Z,47.20
2022-08-23T17:27:21.995Z,49.25
2022-08-23T17:29:54.633Z,53.10
2022-08-23T17:32:28.529Z,47.93
2022-08-23T17:35:00.779Z,51.83
2022-08-23T17:37:33.446Z,61.25
2022-08-23T17:40:11.070Z,68.25
2022-08-23T17:42:47.956Z,54.73
2022-08-23T17:45:20.665Z,61.42
2022-08-23T17:47:52.680Z,62.98
2022-08-23T17:50:26.092Z,63.75
2022-08-23T17:52:58.408Z,62.73
2022-08-23T17:55:32.751Z,56.45
2022-08-23T17:58:06.296Z,49.10
2022-08-23T18:00:40.236Z,59.05
2022-08-23T18:03:12.537Z,57.60
2022-08-23T18:05:46.322Z,50.67
2022-08-23T18:08:19.063Z,57.03
2022-08-23T18:10:51.804Z,47.83
2022-08-23T18:13:24.020Z,55.03
2022-08-23T18:15:56.301Z,52.35
2022-08-23T18:18:30.564Z,46.50
2022-08-23T18:21:08.401Z,54.00
2022-08-23T18:23:41.663Z,48.70
2022-08-23T18:26:32.745Z,46.10
2022-08-23T18:29:06.211Z,43.63
2022-08-23T18:31:38.574Z,43.95
2022-08-23T18:34:11.530Z,43.30
2022-08-23T18:36:45.091Z,37.08
2022-08-23T18:39:29.224Z,33.70
2022-08-23T18:41:53.284Z,42.15
2022-08-23T18:44:25.650Z,37.00
2022-08-23T18:46:58.294Z,43.33
2022-08-23T18:49:30.944Z,39.73
2022-08-23T18:52:03.742Z,42.00
2022-08-23T18:54:37.358Z,36.65
2022-08-23T18:57:09.428Z,36.08
2022-08-23T18:59:43.674Z,32.40
2022-08-23T19:02:16.363Z,31.80
2022-08-23T19:04:48.730Z,28.45
2022-08-23T19:07:21.084Z,28.60
2022-08-23T19:09:53.510Z,31.57
2022-08-23T19:12:26.396Z,41.08
2022-08-23T19:14:58.736Z,29.23
2022-08-23T19:17:32.499Z,22.27
2022-08-23T19:20:06.443Z,22.82
2022-08-23T19:22:38.555Z,30.10
2022-08-23T19:25:11.366Z,23.75
2022-08-23T19:27:43.566Z,30.32
2022-08-23T19:30:17.602Z,31.33
2022-08-23T19:32:49.806Z,29.30
2022-08-23T19:35:21.922Z,32.48
2022-08-23T19:37:54.295Z,27.82
2022-08-23T19:40:26.935Z,25.25
2022-08-23T19:43:00.974Z,26.48
2022-08-23T19:45:34.656Z,28.00
2022-08-23T19:48:07.148Z,28.10
2022-08-23T19:50:41.794Z,22.25
2022-08-23T19:53:14.969Z,22.65
2022-08-23T19:55:48.205Z,27.10
2022-08-23T20:00:52.738Z,23.87
2022-08-23T20:03:24.945Z,22.32
2022-08-23T20:05:57.547Z,27.48
2022-08-23T20:08:31.018Z,26.82
2022-08-23T20:11:03.042Z,24.55
2022-08-23T20:13:35.282Z,25.45
2022-08-23T20:16:07.437Z,28.92
2022-08-23T20:18:39.662Z,23.70
2022-08-23T20:21:11.842Z,21.20
2022-08-23T20:24:03.597Z,30.57
2022-08-23T20:26:54.026Z,23.77
2022-08-23T20:29:27.695Z,26.60
2022-08-23T20:32:06.889Z,26.00
2022-08-23T20:34:41.363Z,27.85
2022-08-23T20:37:14.586Z,31.70
2022-08-23T20:39:46.915Z,26.60
2022-08-23T20:42:19.659Z,26.52
2022-08-23T20:44:52.366Z,28.55
2022-08-23T20:47:24.837Z,22.55
2022-08-23T20:49:56.899Z,28.25
2022-08-23T20:52:34.016Z,22.82
2022-08-23T20:55:03.920Z,22.50
2022-08-23T20:57:38.503Z,22.95
2022-08-23T21:00:29.191Z,22.98
2022-08-23T21:03:19.247Z,29.77
2022-08-23T21:05:52.083Z,19.62
2022-08-23T21:08:24.701Z,22.67
2022-08-23T21:10:57.750Z,23.67
2022-08-23T21:13:30.322Z,29.72
2022-08-23T21:16:02.787Z,19.05
2022-08-23T21:18:35.282Z,20.40
2022-08-23T21:21:07.925Z,21.30
2022-08-23T21:23:40.847Z,17.80
2022-08-23T21:26:12.932Z,26.35
2022-08-23T21:28:45.953Z,20.90
2022-08-23T21:31:21.462Z,23.20
2022-08-23T21:33:55.094Z,23.70
2022-08-23T21:36:27.664Z,15.55
2022-08-23T21:39:00.278Z,23.05
2022-08-23T21:41:41.337Z,21.35
2022-08-23T21:44:16.147Z,13.62
2022-08-23T21:46:49.178Z,18.02
2022-08-23T21:49:24.202Z,17.00
2022-08-23T21:51:56.547Z,16.40
2022-08-23T21:54:29.564Z,11.68
2022-08-23T21:57:01.864Z,16.60
2022-08-23T21:59:34.293Z,15.90
2022-08-23T22:02:07.293Z,15.08
2022-08-23T22:04:40.548Z,15.58
2022-08-23T22:07:16.296Z,16.75
2022-08-23T22:09:50.433Z,10.72
2022-08-23T22:12:25.100Z,15.43
2022-08-23T22:14:57.304Z,16.15
2022-08-23T22:17:29.794Z,13.45
2022-08-23T22:20:03.884Z,16.85
2022-08-23T22:22:38.118Z,11.22
2022-08-23T22:27:46.012Z,16.35
2022-08-23T22:30:19.324Z,11.63
2022-08-23T22:32:51.502Z,17.52
2022-08-23T22:35:23.807Z,15.03
2022-08-23T22:38:12.777Z,13.20
2022-08-23T22:40:29.783Z,10.10
2022-08-23T22:43:02.824Z,13.53
2022-08-23T22:45:36.471Z,10.48
2022-08-23T22:48:08.972Z,14.60
2022-08-23T22:50:41.795Z,10.63
2022-08-23T22:53:14.421Z,13.35
2022-08-23T22:55:53.065Z,11.68
2022-08-23T22:58:25.263Z,10.80
2022-08-23T23:00:57.512Z,12.10
2022-08-23T23:03:30.135Z,7.83
2022-08-23T23:06:02.366Z,16.65
2022-08-23T23:08:34.403Z,15.35
2022-08-23T23:11:09.493Z,13.03
2022-08-23T23:13:42.354Z,15.30
2022-08-23T23:16:17.723Z,13.15
2022-08-23T23:19:08.414Z,12.33
2022-08-23T23:21:43.455Z,14.95
2022-08-23T23:24:19.325Z,11.53
2022-08-23T23:26:52.433Z,11.38
2022-08-23T23:29:25.003Z,13.05
2022-08-23T23:31:57.432Z,11.40
2022-08-23T23:34:30.072Z,16.57
2022-08-23T23:37:02.679Z,10.55
2022-08-23T23:39:34.923Z,11.48
2022-08-23T23:42:07.594Z,8.30
2022-08-23T23:44:39.605Z,8.95
2022-08-23T23:47:11.972Z,10.25
2022-08-23T23:49:44.314Z,16.73
2022-08-23T23:52:16.673Z,15.10
2022-08-23T23:54:48.757Z,9.80
2022-08-23T23:57:21.595Z,6.58
2022-08-23T23:59:55.556Z,13.68
